Time;durP1;ratioP1;P1;durP2;ratioP2;P2;SDS_P1;SDS_P2;PMS_P1;PMS_P2;Temp;Humidity;BMP_temperature;BMP_pressure;BME280_temperature;BME280_humidity;BME280_pressure;Samples;Min_cycle;Max_cycle;Signal;HPM_P1;HPM_P2
2021/07/09 00:01:27;;;;;;;3.63;2.77;;;22.40;66.80;;;;;;5025929;28;20526;-50
2021/07/09 00:03:53;;;;;;;5.87;2.67;;;22.40;66.80;;;;;;5024473;28;20986;-51
2021/07/09 00:06:21;;;;;;;3.20;2.23;;;22.40;66.60;;;;;;5024337;28;20565;-50
2021/07/09 00:08:47;;;;;;;3.97;3.17;;;22.60;67.20;;;;;;5022671;28;20661;-50
2021/07/09 00:11:13;;;;;;;2.23;2.03;;;22.70;66.40;;;;;;5024965;28;20530;-51
2021/07/09 00:13:38;;;;;;;3.07;2.40;;;22.60;66.30;;;;;;5030444;28;20209;-51
2021/07/09 00:16:05;;;;;;;3.57;2.43;;;22.70;66.40;;;;;;5033354;28;20471;-51
2021/07/09 00:18:31;;;;;;;3.00;2.23;;;22.70;66.00;;;;;;5022784;28;20300;-50
2021/07/09 00:20:56;;;;;;;3.10;2.73;;;22.80;66.00;;;;;;5020242;28;20554;-50
2021/07/09 00:23:22;;;;;;;2.40;2.10;;;22.90;66.50;;;;;;5022780;28;20436;-50
2021/07/09 00:25:48;;;;;;;2.00;1.90;;;23.00;65.50;;;;;;5032076;28;20197;-51
2021/07/09 00:28:14;;;;;;;2.53;2.23;;;23.00;64.80;;;;;;5028680;28;20651;-52
2021/07/09 00:30:39;;;;;;;1.97;1.87;;;22.90;64.50;;;;;;5024980;28;20198;-50
2021/07/09 00:33:05;;;;;;;2.40;2.20;;;22.90;64.80;;;;;;5026668;28;20558;-47
2021/07/09 00:35:30;;;;;;;2.87;2.10;;;22.90;65.00;;;;;;5028299;28;20906;-46
2021/07/09 00:37:56;;;;;;;2.40;2.20;;;22.80;65.10;;;;;;5032039;28;20200;-46
2021/07/09 00:40:22;;;;;;;2.30;1.90;;;22.80;65.50;;;;;;5028831;28;20201;-47
2021/07/09 00:42:47;;;;;;;3.13;2.47;;;22.80;65.40;;;;;;5020450;28;20186;-48
2021/07/09 00:45:14;;;;;;;2.00;1.90;;;22.80;65.70;;;;;;5026495;28;20224;-45
2021/07/09 00:47:43;;;;;;;2.43;2.33;;;22.90;66.00;;;;;;5030770;28;20615;-47
2021/07/09 00:50:10;;;;;;;2.80;2.33;;;22.90;64.80;;;;;;5020308;28;20443;-49
2021/07/09 00:52:36;;;;;;;2.30;2.10;;;22.90;64.90;;;;;;5027365;28;20440;-52
2021/07/09 00:55:03;;;;;;;5.20;2.97;;;22.90;65.20;;;;;;5022012;28;20497;-50
2021/07/09 00:57:29;;;;;;;4.70;3.10;;;22.80;65.40;;;;;;5030217;28;20652;-51
2021/07/09 00:59:55;;;;;;;4.50;2.50;;;22.80;65.90;;;;;;5026811;28;20475;-48
2021/07/09 01:02:23;;;;;;;10.70;5.13;;;22.70;65.90;;;;;;5025510;28;20193;-49
2021/07/09 01:04:49;;;;;;;4.30;2.77;;;22.70;66.20;;;;;;5024362;28;20492;-49
2021/07/09 01:07:14;;;;;;;3.17;2.47;;;22.50;66.50;;;;;;5022169;28;20451;-49
2021/07/09 01:09:40;;;;;;;3.13;2.70;;;22.40;66.60;;;;;;5021598;28;20441;-51
2021/07/09 01:12:06;;;;;;;2.87;2.30;;;22.30;67.20;;;;;;5023942;28;20185;-50
2021/07/09 01:14:32;;;;;;;3.50;3.20;;;22.30;67.30;;;;;;5019854;28;20219;-52
2021/07/09 01:16:57;;;;;;;4.27;2.27;;;22.30;68.00;;;;;;5026212;28;20483;-51
2021/07/09 01:19:23;;;;;;;5.13;2.40;;;22.40;67.50;;;;;;5022151;28;20197;-52
2021/07/09 01:21:49;;;;;;;3.87;2.70;;;22.50;67.60;;;;;;5027224;28;20718;-51
2021/07/09 01:24:16;;;;;;;3.30;3.10;;;22.50;66.50;;;;;;5018736;28;20221;-51
2021/07/09 01:26:43;;;;;;;5.37;2.97;;;22.50;66.50;;;;;;5017179;28;20527;-51
2021/07/09 01:29:09;;;;;;;3.40;3.07;;;22.50;66.70;;;;;;5024392;28;21109;-50
2021/07/09 01:31:35;;;;;;;4.50;2.93;;;22.50;67.20;;;;;;5023414;28;20444;-49
2021/07/09 01:34:04;;;;;;;3.00;2.80;;;22.40;67.00;;;;;;5024057;28;20458;-47
2021/07/09 01:36:30;;;;;;;5.80;2.93;;;22.50;67.10;;;;;;5024053;28;20463;-48
2021/07/09 01:38:55;;;;;;;6.63;2.40;;;22.50;67.10;;;;;;5024562;28;20451;-48
2021/07/09 01:41:21;;;;;;;3.20;2.90;;;22.30;67.10;;;;;;5024287;28;20447;-47
2021/07/09 01:43:48;;;;;;;3.77;3.47;;;22.20;67.40;;;;;;5023137;28;20665;-46
2021/07/09 01:46:14;;;;;;;3.00;2.80;;;22.10;67.50;;;;;;5023970;28;20204;-49
2021/07/09 01:48:40;;;;;;;3.50;2.93;;;22.20;68.20;;;;;;5019255;28;20563;-50
2021/07/09 01:51:06;;;;;;;2.83;2.43;;;22.20;67.60;;;;;;5025012;28;20528;-50
2021/07/09 01:53:32;;;;;;;2.77;2.33;;;22.30;67.30;;;;;;5023597;28;20328;-49
2021/07/09 01:55:58;;;;;;;2.70;2.50;;;22.40;67.30;;;;;;5018352;28;20200;-46
2021/07/09 01:58:23;;;;;;;4.20;2.60;;;22.40;66.60;;;;;;5016252;28;20449;-47
2021/07/09 02:00:50;;;;;;;3.10;2.67;;;22.50;66.60;;;;;;5023272;28;20212;-48
2021/07/09 02:03:16;;;;;;;2.93;2.73;;;22.60;66.40;;;;;;5023458;28;20215;-46
2021/07/09 02:05:42;;;;;;;3.30;3.00;;;22.50;66.30;;;;;;5022823;28;20486;-50
2021/07/09 02:08:08;;;;;;;3.40;3.10;;;22.30;66.60;;;;;;5029535;28;20443;-47
2021/07/09 02:10:37;;;;;;;3.63;2.73;;;22.20;66.80;;;;;;5021374;28;20205;-46
2021/07/09 02:13:04;;;;;;;4.90;2.80;;;22.00;67.70;;;;;;5023382;28;20539;-47
2021/07/09 02:15:40;;;;;;;3.03;2.50;;;22.00;68.40;;;;;;5023370;28;20462;-50
2021/07/09 02:18:07;;;;;;;2.83;2.63;;;22.00;68.60;;;;;;5022895;28;20476;-49
2021/07/09 02:20:34;;;;;;;3.40;2.60;;;22.00;67.90;;;;;;5025428;28;20475;-49
2021/07/09 02:23:03;;;;;;;5.83;2.90;;;22.10;68.10;;;;;;5023925;28;20448;-49
2021/07/09 02:25:29;;;;;;;4.90;2.57;;;22.00;68.10;;;;;;5019792;28;20499;-47
2021/07/09 02:27:55;;;;;;;6.73;3.10;;;21.90;68.80;;;;;;5019500;28;20454;-49
2021/07/09 02:30:22;;;;;;;4.00;3.17;;;21.80;69.10;;;;;;5025518;28;20458;-47
2021/07/09 02:32:49;;;;;;;4.40;3.17;;;21.50;69.40;;;;;;5023232;28;20515;-49
2021/07/09 02:35:17;;;;;;;4.70;3.03;;;21.50;70.10;;;;;;5017339;28;20440;-49
2021/07/09 02:37:44;;;;;;;4.10;3.70;;;21.30;70.40;;;;;;5025923;28;20444;-49
2021/07/09 02:40:12;;;;;;;3.70;3.10;;;21.30;71.00;;;;;;5026018;28;20526;-46
2021/07/09 02:42:40;;;;;;;3.87;3.57;;;21.20;71.40;;;;;;5022735;28;20447;-45
2021/07/09 02:45:07;;;;;;;3.60;3.27;;;21.20;71.20;;;;;;5022927;28;20863;-46
2021/07/09 02:47:32;;;;;;;4.70;3.40;;;21.20;72.20;;;;;;5026125;28;20454;-45
2021/07/09 02:49:58;;;;;;;6.23;3.57;;;21.00;72.00;;;;;;5017057;28;20441;-45
2021/07/09 02:52:24;;;;;;;7.17;3.27;;;21.00;72.40;;;;;;5024740;28;20549;-51
2021/07/09 02:54:49;;;;;;;6.43;3.50;;;20.90;72.30;;;;;;5029325;28;20226;-48
2021/07/09 02:57:15;;;;;;;4.60;3.27;;;21.10;72.00;;;;;;5029237;28;20624;-47
2021/07/09 02:59:40;;;;;;;3.23;2.93;;;21.20;71.60;;;;;;5022522;28;20205;-45
2021/07/09 03:02:06;;;;;;;3.10;2.90;;;21.10;71.40;;;;;;5021219;28;20204;-45
2021/07/09 03:04:32;;;;;;;3.90;3.30;;;21.00;71.60;;;;;;5027389;28;20259;-46
2021/07/09 03:06:57;;;;;;;2.83;2.63;;;21.10;71.70;;;;;;5024892;28;20228;-45
2021/07/09 03:09:23;;;;;;;3.20;2.60;;;21.10;71.60;;;;;;5032011;28;20261;-47
2021/07/09 03:11:48;;;;;;;6.80;3.00;;;21.10;71.70;;;;;;5032615;28;20593;-47
2021/07/09 03:14:14;;;;;;;3.47;3.17;;;21.20;71.20;;;;;;5031304;28;20213;-47
2021/07/09 03:16:40;;;;;;;5.17;3.20;;;21.30;71.00;;;;;;5022102;28;20237;-48
2021/07/09 03:19:07;;;;;;;3.03;2.73;;;21.30;71.00;;;;;;5017744;28;20523;-46
2021/07/09 03:21:36;;;;;;;4.90;3.03;;;21.10;71.10;;;;;;5032853;28;20304;-45
2021/07/09 03:24:02;;;;;;;9.67;3.77;;;21.10;71.80;;;;;;5020032;28;20483;-51
2021/07/09 03:26:28;;;;;;;4.50;2.90;;;21.20;71.10;;;;;;5021406;28;20501;-45
2021/07/09 03:28:57;;;;;;;3.00;2.80;;;21.10;71.40;;;;;;5025022;28;20443;-46
2021/07/09 03:31:27;;;;;;;3.67;3.47;;;21.20;71.30;;;;;;5025567;28;20197;-46
2021/07/09 03:33:54;;;;;;;6.90;3.70;;;21.30;70.80;;;;;;5028126;28;20855;-46
2021/07/09 03:36:20;;;;;;;3.50;3.30;;;21.20;71.10;;;;;;5025241;28;20816;-50
2021/07/09 03:38:47;;;;;;;4.70;3.90;;;21.10;71.40;;;;;;5024429;28;20466;-48
2021/07/09 03:41:13;;;;;;;2.90;2.70;;;21.00;71.40;;;;;;5023560;28;20450;-48
2021/07/09 03:43:39;;;;;;;3.70;3.20;;;20.90;71.80;;;;;;5027207;28;20456;-49
2021/07/09 03:46:04;;;;;;;11.93;3.90;;;21.00;71.30;;;;;;5024490;28;20185;-46
2021/07/09 03:48:30;;;;;;;3.57;3.37;;;20.90;71.20;;;;;;5027516;28;20228;-46
2021/07/09 03:50:56;;;;;;;4.80;3.13;;;20.90;71.20;;;;;;5029577;28;20193;-46
2021/07/09 03:53:21;;;;;;;5.60;3.17;;;20.80;71.80;;;;;;5025248;28;20719;-49
2021/07/09 03:55:47;;;;;;;8.40;4.13;;;20.90;72.00;;;;;;5030675;28;20189;-46
2021/07/09 03:58:13;;;;;;;5.47;3.10;;;20.90;71.80;;;;;;5025465;28;20247;-47
2021/07/09 04:00:38;;;;;;;4.33;3.93;;;21.00;71.50;;;;;;5029363;28;20633;-49
2021/07/09 04:03:04;;;;;;;7.73;3.60;;;21.10;71.20;;;;;;5028498;28;20188;-45
2021/07/09 04:05:29;;;;;;;5.13;3.70;;;20.80;72.00;;;;;;5023965;28;20235;-46
2021/07/09 04:07:55;;;;;;;5.20;4.10;;;20.60;72.70;;;;;;5026571;28;20189;-45
2021/07/09 04:10:21;;;;;;;5.43;4.37;;;20.40;73.80;;;;;;5028028;28;20206;-47
2021/07/09 04:12:46;;;;;;;3.90;3.50;;;20.30;74.30;;;;;;5021649;28;20186;-47
2021/07/09 04:15:12;;;;;;;6.73;4.10;;;20.20;74.60;;;;;;5018047;28;20181;-51
2021/07/09 04:17:38;;;;;;;4.10;3.80;;;20.10;75.10;;;;;;5028554;28;20233;-47
2021/07/09 04:20:05;;;;;;;5.00;4.60;;;20.10;75.00;;;;;;5021129;28;20574;-47
2021/07/09 04:22:31;;;;;;;4.43;3.90;;;20.10;75.10;;;;;;5029568;28;20449;-47
2021/07/09 04:24:57;;;;;;;5.80;4.37;;;20.20;75.00;;;;;;5024448;28;20523;-47
2021/07/09 04:27:22;;;;;;;4.40;3.53;;;20.20;74.50;;;;;;5029334;28;20209;-45
2021/07/09 04:29:48;;;;;;;3.93;3.57;;;20.10;74.90;;;;;;5026320;28;20194;-45
2021/07/09 04:32:13;;;;;;;3.97;3.47;;;20.00;75.50;;;;;;5024009;28;20226;-45
2021/07/09 04:34:39;;;;;;;5.43;4.13;;;20.10;75.50;;;;;;5026076;28;20719;-47
2021/07/09 04:37:11;;;;;;;4.40;3.30;;;20.10;75.60;;;;;;5027494;28;20219;-49
2021/07/09 04:39:38;;;;;;;4.50;3.47;;;19.90;75.80;;;;;;5023165;28;20196;-46
2021/07/09 04:42:05;;;;;;;5.80;4.30;;;20.00;75.60;;;;;;5029229;28;20488;-45
2021/07/09 04:44:31;;;;;;;3.57;3.27;;;19.90;75.90;;;;;;5027325;28;20534;-45
2021/07/09 04:46:57;;;;;;;5.47;3.90;;;19.80;76.60;;;;;;5022829;28;20451;-46
2021/07/09 04:49:23;;;;;;;5.70;3.57;;;19.70;76.70;;;;;;5027893;28;20827;-45
2021/07/09 04:51:48;;;;;;;4.30;3.47;;;19.70;77.00;;;;;;5023491;28;20676;-47
2021/07/09 04:54:14;;;;;;;3.73;3.33;;;19.60;77.10;;;;;;5020755;28;20217;-45
2021/07/09 04:56:39;;;;;;;8.27;3.80;;;19.60;77.80;;;;;;5017481;28;20399;-46
2021/07/09 04:59:05;;;;;;;5.00;4.07;;;19.60;77.40;;;;;;5026524;28;20316;-46
2021/07/09 05:01:30;;;;;;;4.60;3.57;;;19.80;77.40;;;;;;5026190;28;20201;-46
2021/07/09 05:03:58;;;;;;;3.70;3.40;;;19.70;76.70;;;;;;5030644;28;20879;-45
2021/07/09 05:06:24;;;;;;;3.50;3.20;;;19.60;77.00;;;;;;5019718;28;20281;-50
2021/07/09 05:08:49;;;;;;;4.10;3.80;;;19.60;77.40;;;;;;5021447;28;20559;-48
2021/07/09 05:11:15;;;;;;;8.37;3.63;;;19.70;77.50;;;;;;5023895;28;20451;-46
2021/07/09 05:13:40;;;;;;;3.97;3.67;;;19.60;77.10;;;;;;5028886;28;20211;-49
2021/07/09 05:16:06;;;;;;;4.17;3.77;;;19.50;77.30;;;;;;5020778;28;20198;-51
2021/07/09 05:18:32;;;;;;;3.50;3.20;;;19.40;77.70;;;;;;5023505;28;20211;-50
2021/07/09 05:21:01;;;;;;;5.10;3.67;;;19.40;78.00;;;;;;5020860;28;20444;-48
2021/07/09 05:23:26;;;;;;;3.80;3.50;;;19.70;77.20;;;;;;5024085;28;20276;-51
2021/07/09 05:25:53;;;;;;;7.03;3.60;;;19.70;76.70;;;;;;5022447;28;20567;-47
2021/07/09 05:28:19;;;;;;;3.63;3.33;;;19.70;76.80;;;;;;5024091;28;20189;-50
2021/07/09 05:30:44;;;;;;;3.97;3.13;;;19.90;76.30;;;;;;5016015;28;20465;-49
2021/07/09 05:33:10;;;;;;;3.40;2.90;;;19.90;76.20;;;;;;5020401;28;20272;-46
2021/07/09 05:35:36;;;;;;;4.23;3.90;;;20.00;75.90;;;;;;5015766;28;20622;-46
2021/07/09 05:38:03;;;;;;;3.73;3.37;;;19.90;75.80;;;;;;5018224;28;20201;-48
2021/07/09 05:40:29;;;;;;;8.33;4.17;;;20.10;75.30;;;;;;5027958;28;20547;-47
2021/07/09 05:42:54;;;;;;;4.30;3.10;;;20.20;75.00;;;;;;5019239;28;20978;-46
2021/07/09 05:45:20;;;;;;;3.80;3.50;;;20.20;74.80;;;;;;5026602;28;20981;-45
2021/07/09 05:47:46;;;;;;;3.43;3.00;;;20.20;74.60;;;;;;5027177;28;20200;-45
2021/07/09 05:50:11;;;;;;;3.57;3.37;;;20.00;75.10;;;;;;5029543;28;20193;-45
2021/07/09 05:52:37;;;;;;;4.27;3.30;;;20.20;75.20;;;;;;5027835;28;20238;-45
2021/07/09 05:55:04;;;;;;;5.23;3.17;;;19.90;75.60;;;;;;5027163;28;20312;-49
2021/07/09 05:57:30;;;;;;;4.37;3.97;;;20.00;75.50;;;;;;5030415;28;20259;-47
2021/07/09 05:59:56;;;;;;;3.33;3.13;;;20.00;75.40;;;;;;5018951;28;20449;-48
2021/07/09 06:02:21;;;;;;;5.10;3.63;;;20.00;75.10;;;;;;5020772;28;20664;-47
2021/07/09 06:04:47;;;;;;;4.00;3.70;;;19.90;75.70;;;;;;5017941;28;20253;-48
2021/07/09 06:07:12;;;;;;;4.33;3.83;;;20.00;75.30;;;;;;5022529;28;20193;-45
2021/07/09 06:09:38;;;;;;;3.90;3.60;;;20.00;75.50;;;;;;5023855;28;20194;-45
2021/07/09 06:12:04;;;;;;;6.37;3.87;;;20.10;75.40;;;;;;5026020;28;20228;-47
2021/07/09 06:14:29;;;;;;;4.40;4.00;;;19.90;75.20;;;;;;5022523;28;20209;-45
2021/07/09 06:16:55;;;;;;;8.00;4.03;;;20.00;75.80;;;;;;5026587;28;20226;-45
2021/07/09 06:19:20;;;;;;;6.00;3.97;;;20.10;75.50;;;;;;5028497;28;20688;-47
2021/07/09 06:21:46;;;;;;;6.53;4.00;;;19.90;75.80;;;;;;5030050;28;20193;-51
2021/07/09 06:24:12;;;;;;;4.63;4.23;;;19.90;76.10;;;;;;5030260;28;20286;-51
2021/07/09 06:26:37;;;;;;;5.20;4.00;;;20.10;76.10;;;;;;5021389;28;20193;-49
2021/07/09 06:29:04;;;;;;;4.40;4.00;;;20.30;75.50;;;;;;5024390;28;20201;-47
2021/07/09 06:31:30;;;;;;;4.20;3.80;;;20.50;75.60;;;;;;5029314;28;20628;-47
2021/07/09 06:33:55;;;;;;;6.30;4.13;;;20.30;74.50;;;;;;5028692;28;20427;-46
2021/07/09 06:36:21;;;;;;;4.70;4.30;;;20.20;75.10;;;;;;5027651;28;20998;-48
2021/07/09 06:38:47;;;;;;;4.37;4.00;;;20.10;75.80;;;;;;5031303;28;20285;-47
2021/07/09 06:41:13;;;;;;;4.63;4.20;;;20.30;75.70;;;;;;5029042;28;20193;-47
2021/07/09 06:43:39;;;;;;;5.60;4.57;;;20.40;75.10;;;;;;5022857;28;20194;-46
2021/07/09 06:46:04;;;;;;;4.00;3.70;;;20.50;74.50;;;;;;5026895;28;20439;-47
2021/07/09 06:48:30;;;;;;;4.00;3.60;;;20.50;74.40;;;;;;5029842;28;20205;-47
2021/07/09 06:50:56;;;;;;;6.00;4.30;;;20.50;74.00;;;;;;5029055;28;20766;-46
2021/07/09 06:53:21;;;;;;;6.43;4.63;;;20.30;74.70;;;;;;5031349;28;20193;-48
2021/07/09 06:55:47;;;;;;;5.47;4.47;;;20.30;74.70;;;;;;5025706;28;20189;-47
2021/07/09 06:58:12;;;;;;;5.47;4.90;;;20.40;74.40;;;;;;5029632;28;20272;-47
2021/07/09 07:00:38;;;;;;;5.50;4.53;;;20.40;74.60;;;;;;5026477;28;20205;-48
2021/07/09 07:03:05;;;;;;;5.30;4.43;;;20.60;74.10;;;;;;5015490;28;20221;-46
2021/07/09 07:05:31;;;;;;;5.00;4.50;;;20.60;73.80;;;;;;5027068;28;20235;-47
2021/07/09 07:07:56;;;;;;;10.93;5.00;;;20.70;73.70;;;;;;5023488;28;20441;-46
2021/07/09 07:10:22;;;;;;;5.23;4.77;;;20.70;73.60;;;;;;5019428;28;20661;-47
2021/07/09 07:12:47;;;;;;;5.10;4.60;;;20.40;73.90;;;;;;5018525;28;20211;-49
2021/07/09 07:15:14;;;;;;;5.80;5.33;;;20.60;74.20;;;;;;5019077;28;20223;-47
2021/07/09 07:17:40;;;;;;;5.37;4.80;;;20.60;73.80;;;;;;5018170;28;20229;-47
2021/07/09 07:20:06;;;;;;;5.20;4.80;;;20.70;73.90;;;;;;5019518;28;20451;-47
2021/07/09 07:22:32;;;;;;;5.10;4.70;;;20.70;73.70;;;;;;5020901;28;20440;-47
2021/07/09 07:24:58;;;;;;;7.00;4.63;;;20.50;73.90;;;;;;5016902;28;20553;-47
2021/07/09 07:27:27;;;;;;;5.07;4.47;;;20.70;73.90;;;;;;5024457;28;20442;-50
2021/07/09 07:29:55;;;;;;;6.40;4.47;;;20.80;73.60;;;;;;5024026;28;20198;-47
2021/07/09 07:32:21;;;;;;;5.63;4.53;;;20.80;73.90;;;;;;5015858;28;20437;-47
2021/07/09 07:34:47;;;;;;;6.13;5.20;;;20.90;73.80;;;;;;5019026;28;20436;-48
2021/07/09 07:37:13;;;;;;;5.50;5.00;;;21.00;73.70;;;;;;5018416;28;20438;-47
2021/07/09 07:39:38;;;;;;;7.30;5.30;;;21.10;73.20;;;;;;5028836;28;20240;-48
2021/07/09 07:42:04;;;;;;;5.23;4.80;;;21.20;73.00;;;;;;5034161;28;20598;-49
2021/07/09 07:44:30;;;;;;;5.50;4.97;;;21.20;72.70;;;;;;5030230;28;20237;-47
2021/07/09 07:46:56;;;;;;;7.03;4.90;;;21.30;72.50;;;;;;5025593;28;20201;-47
2021/07/09 07:49:22;;;;;;;5.60;5.10;;;21.40;72.20;;;;;;5032748;28;20197;-47
2021/07/09 07:51:50;;;;;;;5.73;5.20;;;21.20;72.90;;;;;;5026365;28;20243;-47
2021/07/09 07:54:16;;;;;;;4.97;4.57;;;21.20;72.70;;;;;;5021724;28;20449;-47
2021/07/09 07:56:41;;;;;;;6.07;5.40;;;21.20;72.20;;;;;;5024225;28;20435;-48
2021/07/09 07:59:07;;;;;;;5.90;5.23;;;21.30;72.70;;;;;;5023194;28;20189;-45
2021/07/09 08:01:32;;;;;;;6.27;5.20;;;21.50;72.40;;;;;;5018640;28;20194;-45
2021/07/09 08:03:58;;;;;;;4.87;4.47;;;21.50;72.60;;;;;;5019277;28;20714;-44
2021/07/09 08:06:24;;;;;;;7.40;5.07;;;21.60;72.30;;;;;;5015643;28;20191;-44
2021/07/09 08:08:50;;;;;;;5.53;5.00;;;21.70;71.90;;;;;;5029358;28;20498;-44
2021/07/09 08:11:15;;;;;;;6.27;5.67;;;21.80;71.70;;;;;;5029796;28;20189;-45
2021/07/09 08:13:41;;;;;;;5.30;4.90;;;21.90;71.70;;;;;;5024857;28;20190;-47
2021/07/09 08:16:10;;;;;;;6.83;6.23;;;21.90;71.70;;;;;;5020990;28;20186;-45
2021/07/09 08:18:36;;;;;;;6.10;5.50;;;22.00;71.50;;;;;;5029538;28;20664;-44
2021/07/09 08:21:01;;;;;;;6.20;5.60;;;22.10;71.70;;;;;;5031071;28;20462;-48
2021/07/09 08:23:28;;;;;;;5.80;5.17;;;22.10;71.30;;;;;;5025602;28;20197;-44
2021/07/09 08:25:54;;;;;;;6.57;5.37;;;22.20;71.30;;;;;;5032445;28;20236;-44
2021/07/09 08:28:21;;;;;;;10.03;5.97;;;22.30;71.10;;;;;;5032637;28;20436;-44
2021/07/09 08:30:47;;;;;;;19.40;6.60;;;22.30;70.70;;;;;;5025319;28;20324;-44
2021/07/09 08:33:13;;;;;;;6.03;5.47;;;22.40;71.30;;;;;;5026474;28;20982;-45
2021/07/09 08:35:39;;;;;;;6.33;5.23;;;22.40;71.10;;;;;;5026895;28;20284;-45
2021/07/09 08:38:04;;;;;;;6.10;5.50;;;22.40;70.80;;;;;;5027098;28;20920;-45
2021/07/09 08:40:30;;;;;;;5.77;5.10;;;22.50;70.70;;;;;;5023006;28;20524;-44
2021/07/09 08:42:56;;;;;;;7.90;4.90;;;22.40;70.40;;;;;;5023185;28;20235;-44
2021/07/09 08:45:22;;;;;;;5.40;5.00;;;22.30;69.30;;;;;;5026687;28;20840;-46
2021/07/09 08:47:48;;;;;;;5.23;4.67;;;22.20;69.60;;;;;;5021111;28;20197;-47
2021/07/09 08:50:14;;;;;;;7.60;5.77;;;22.50;69.80;;;;;;5026981;28;20655;-54
2021/07/09 08:52:41;;;;;;;4.87;4.47;;;22.60;69.70;;;;;;5021879;28;20523;-48
2021/07/09 08:55:12;;;;;;;7.03;5.43;;;22.40;69.10;;;;;;5032052;28;20221;-48
2021/07/09 08:57:45;;;;;;;5.33;4.93;;;22.40;69.80;;;;;;5030119;28;20860;-48
2021/07/09 09:00:32;;;;;;;6.50;5.17;;;22.60;69.70;;;;;;5025280;28;20439;-48
2021/07/09 09:02:58;;;;;;;6.60;5.90;;;22.90;70.00;;;;;;5027143;28;20444;-48
2021/07/09 09:05:28;;;;;;;5.77;5.17;;;22.90;70.10;;;;;;5017972;28;20527;-47
2021/07/09 09:08:05;;;;;;;5.70;4.83;;;23.10;69.80;;;;;;5026358;28;20828;-48
2021/07/09 09:10:37;;;;;;;8.07;5.27;;;23.20;69.10;;;;;;5026225;28;20439;-49
2021/07/09 09:13:20;;;;;;;5.67;5.27;;;23.10;67.60;;;;;;5021347;28;20449;-49
2021/07/09 09:16:12;;;;;;;6.20;5.60;;;23.00;67.70;;;;;;5020310;28;20870;-48
2021/07/09 09:18:57;;;;;;;5.37;4.93;;;22.90;67.90;;;;;;5026867;28;20455;-48
2021/07/09 09:21:24;;;;;;;6.63;6.00;;;23.00;69.90;;;;;;5021702;28;20443;-49
2021/07/09 09:23:51;;;;;;;6.70;5.80;;;23.00;67.00;;;;;;5019417;28;20459;-48
2021/07/09 09:26:46;;;;;;;6.37;5.77;;;22.80;67.20;;;;;;5023385;28;20842;-48
2021/07/09 09:29:14;;;;;;;7.23;6.20;;;23.00;68.20;;;;;;5019544;28;20451;-49
2021/07/09 09:31:40;;;;;;;5.93;5.27;;;23.30;69.10;;;;;;5030987;28;20428;-48
2021/07/09 09:34:06;;;;;;;6.43;5.77;;;23.40;67.50;;;;;;5024592;28;20803;-47
2021/07/09 09:36:32;;;;;;;5.67;5.23;;;23.50;67.60;;;;;;5029066;28;20197;-47
2021/07/09 09:39:04;;;;;;;5.93;5.50;;;23.60;67.40;;;;;;5026610;28;20870;-47
2021/07/09 09:41:30;;;;;;;7.50;5.70;;;23.70;66.00;;;;;;5026735;28;20202;-47
2021/07/09 09:44:14;;;;;;;7.80;7.10;;;23.80;64.70;;;;;;5025633;28;20448;-47
2021/07/09 09:46:40;;;;;;;5.40;5.00;;;23.80;64.80;;;;;;5020182;28;20587;-47
2021/07/09 09:49:11;;;;;;;5.73;5.27;;;23.70;66.10;;;;;;5027831;28;20515;-47
2021/07/09 09:51:37;;;;;;;5.90;5.43;;;24.00;65.70;;;;;;5026018;28;20189;-48
2021/07/09 09:54:32;;;;;;;6.33;5.80;;;24.20;62.70;;;;;;5025105;28;20453;-53
2021/07/09 09:56:58;;;;;;;5.17;4.73;;;23.90;62.60;;;;;;5023443;28;20440;-50
2021/07/09 09:59:25;;;;;;;5.13;4.73;;;24.00;62.50;;;;;;5022946;28;20443;-47
2021/07/09 10:02:03;;;;;;;6.20;5.70;;;24.10;62.20;;;;;;5024988;28;20196;-48
2021/07/09 10:04:30;;;;;;;4.77;4.47;;;24.20;63.20;;;;;;5026562;28;20484;-50
2021/07/09 10:06:57;;;;;;;5.30;4.80;;;24.30;62.60;;;;;;5024336;28;20959;-48
2021/07/09 10:09:24;;;;;;;6.17;5.50;;;24.60;62.60;;;;;;5023615;28;20454;-48
2021/07/09 10:11:50;;;;;;;6.90;5.27;;;24.70;62.50;;;;;;5019482;28;20440;-47
2021/07/09 10:14:18;;;;;;;5.17;4.60;;;24.80;62.10;;;;;;5021257;28;20428;-49
2021/07/09 10:16:46;;;;;;;4.60;4.20;;;24.90;61.10;;;;;;5023017;28;20832;-48
2021/07/09 10:19:18;;;;;;;4.37;4.07;;;24.90;59.10;;;;;;5020793;28;20444;-49
2021/07/09 10:21:43;;;;;;;7.33;6.60;;;24.90;59.20;;;;;;5027965;28;20420;-47
2021/07/09 10:24:10;;;;;;;4.83;4.43;;;24.80;59.20;;;;;;5019354;28;20837;-49
2021/07/09 10:26:43;;;;;;;5.30;4.80;;;24.70;60.20;;;;;;5020820;28;20201;-48
2021/07/09 10:29:14;;;;;;;5.63;4.60;;;24.90;59.70;;;;;;5023565;28;20486;-47
2021/07/09 10:31:42;;;;;;;5.77;4.50;;;24.70;58.90;;;;;;5027119;28;20467;-50
2021/07/09 10:34:24;;;;;;;5.03;4.40;;;24.60;59.00;;;;;;5029449;28;20442;-47
2021/07/09 10:37:01;;;;;;;4.80;4.40;;;24.50;58.70;;;;;;5020556;28;20914;-45
2021/07/09 10:39:48;;;;;;;5.10;4.60;;;24.70;59.70;;;;;;5030969;28;20515;-46
2021/07/09 10:42:40;;;;;;;5.80;4.90;;;24.80;58.80;;;;;;5016744;28;20441;-45
2021/07/09 10:45:22;;;;;;;7.07;4.90;;;24.90;58.80;;;;;;5027175;28;20527;-46
2021/07/09 10:47:51;;;;;;;4.67;3.67;;;25.20;58.00;;;;;;5018243;28;20535;-46
2021/07/09 10:50:26;;;;;;;7.70;5.20;;;25.40;58.10;;;;;;5025409;28;20494;-45
2021/07/09 10:52:59;;;;;;;4.80;4.40;;;25.40;58.10;;;;;;5017384;28;20444;-46
2021/07/09 10:55:25;;;;;;;5.70;5.30;;;25.60;57.60;;;;;;5023229;28;20455;-45
2021/07/09 10:58:05;;;;;;;5.43;4.37;;;25.60;58.00;;;;;;5018344;28;20436;-49
2021/07/09 11:00:44;;;;;;;4.60;4.17;;;25.60;57.30;;;;;;5020230;28;20325;-45
2021/07/09 11:03:10;;;;;;;4.40;4.00;;;25.50;55.80;;;;;;5025401;28;20448;-45
2021/07/09 11:05:42;;;;;;;4.43;4.03;;;25.60;56.50;;;;;;5019947;28;20542;-50
2021/07/09 11:08:29;;;;;;;4.93;4.53;;;25.50;55.80;;;;;;5029845;28;20432;-46
2021/07/09 11:10:56;;;;;;;4.10;3.80;;;25.40;56.50;;;;;;5021311;28;20437;-46
2021/07/09 11:13:46;;;;;;;5.03;4.60;;;25.60;56.30;;;;;;5023312;28;20440;-45
2021/07/09 11:16:35;;;;;;;5.73;4.93;;;25.70;56.50;;;;;;5023863;28;20476;-47
2021/07/09 11:19:02;;;;;;;5.00;4.60;;;25.90;57.00;;;;;;5025587;28;20447;-48
2021/07/09 11:21:31;;;;;;;4.30;3.70;;;26.10;56.10;;;;;;5030805;28;20455;-49
2021/07/09 11:24:07;;;;;;;4.90;4.30;;;26.20;55.00;;;;;;5033107;28;20497;-46
2021/07/09 11:26:36;;;;;;;3.90;3.60;;;26.20;54.30;;;;;;5026681;28;20448;-45
2021/07/09 11:29:20;;;;;;;4.53;3.87;;;26.40;53.60;;;;;;5024565;28;20559;-45
2021/07/09 11:31:45;;;;;;;5.97;4.10;;;26.60;53.90;;;;;;5030721;28;20435;-46
2021/07/09 11:34:13;;;;;;;4.63;3.73;;;26.70;55.30;;;;;;5028078;28;20450;-47
2021/07/09 11:36:42;;;;;;;3.90;3.60;;;26.80;54.20;;;;;;5031910;28;20213;-45
2021/07/09 11:39:11;;;;;;;6.50;5.90;;;26.90;53.90;;;;;;5028736;28;20451;-46
2021/07/09 11:42:04;;;;;;;7.07;6.00;;;26.80;52.60;;;;;;5033395;28;20884;-46
2021/07/09 11:44:35;;;;;;;7.60;5.70;;;26.80;52.00;;;;;;5024816;28;20485;-45
2021/07/09 11:47:04;;;;;;;11.67;6.30;;;26.30;51.90;;;;;;5026050;28;20440;-45
2021/07/09 11:49:35;;;;;;;6.70;6.10;;;26.40;52.60;;;;;;5024399;28;20471;-47
2021/07/09 11:52:03;;;;;;;5.90;5.10;;;26.60;51.60;;;;;;5024658;28;20440;-47
2021/07/09 11:54:32;;;;;;;6.00;5.53;;;26.80;51.20;;;;;;5027259;28;20446;-45
2021/07/09 11:57:01;;;;;;;5.47;5.00;;;26.90;50.70;;;;;;5029725;28;20439;-45
2021/07/09 11:59:27;;;;;;;6.43;5.10;;;27.00;50.30;;;;;;5023620;28;20446;-47
2021/07/09 12:02:00;;;;;;;5.20;4.80;;;27.10;51.20;;;;;;5029358;28;20436;-47
2021/07/09 12:04:34;;;;;;;4.97;4.57;;;27.30;50.60;;;;;;5030118;28;20489;-48
2021/07/09 12:07:23;;;;;;;5.60;5.10;;;27.40;50.10;;;;;;5028848;28;20444;-46
2021/07/09 12:09:52;;;;;;;6.20;5.70;;;27.70;49.30;;;;;;5015605;28;20452;-48
2021/07/09 12:12:18;;;;;;;6.83;5.63;;;27.90;48.90;;;;;;5026829;28;20425;-45
2021/07/09 12:14:49;;;;;;;6.30;5.80;;;27.90;48.20;;;;;;5031117;28;20436;-48
2021/07/09 12:17:15;;;;;;;6.43;5.80;;;27.60;48.20;;;;;;5028382;28;20480;-46
2021/07/09 12:20:00;;;;;;;7.03;5.73;;;27.60;48.40;;;;;;5025504;28;20451;-48
2021/07/09 12:22:31;;;;;;;7.57;6.60;;;27.40;49.00;;;;;;5023424;28;20185;-48
2021/07/09 12:25:01;;;;;;;7.90;7.20;;;27.30;49.70;;;;;;5029923;28;20487;-48
2021/07/09 12:27:31;;;;;;;8.27;7.23;;;27.40;49.50;;;;;;5026410;28;20490;-48
2021/07/09 12:29:57;;;;;;;7.60;6.43;;;27.50;49.80;;;;;;5023530;28;20472;-46
2021/07/09 12:32:23;;;;;;;9.03;7.23;;;27.60;50.00;;;;;;5017305;28;20516;-45
2021/07/09 12:35:00;;;;;;;7.47;6.33;;;27.70;50.20;;;;;;5026096;28;20991;-46
2021/07/09 12:37:25;;;;;;;8.00;6.67;;;27.80;50.30;;;;;;5016475;28;20185;-52
2021/07/09 12:39:51;;;;;;;6.20;5.80;;;27.70;48.10;;;;;;5027988;28;20468;-45
2021/07/09 12:42:22;;;;;;;7.83;6.50;;;27.90;48.30;;;;;;5020915;28;20210;-47
2021/07/09 12:44:55;;;;;;;6.40;5.90;;;27.80;48.30;;;;;;5029241;28;20263;-46
2021/07/09 12:47:21;;;;;;;5.63;5.23;;;27.90;47.80;;;;;;5031515;28;20432;-48
2021/07/09 12:49:46;;;;;;;6.13;5.60;;;28.00;48.20;;;;;;5026615;28;20443;-47